Time;durP1;ratioP1;P1;durP2;ratioP2;P2;SDS_P1;SDS_P2;PMS_P1;PMS_P2;Temp;Humidity;BMP_temperature;BMP_pressure;BME280_temperature;BME280_humidity;BME280_pressure;Samples;Min_cycle;Max_cycle;Signal;HPM_P1;HPM_P2
2022/08/09 00:02:56;;;;;;;2.23;2.13;;;21.70;25.70;;;;;;10446083;28;20221;-78
2022/08/09 00:08:01;;;;;;;2.47;2.37;;;21.70;26.40;;;;;;10447491;28;20597;-78
2022/08/09 00:13:05;;;;;;;2.70;2.50;;;21.60;25.90;;;;;;10449787;28;20220;-78
2022/08/09 00:18:21;;;;;;;2.27;2.17;;;21.50;26.10;;;;;;10445351;28;20232;-78
2022/08/09 00:23:26;;;;;;;2.30;2.20;;;21.40;26.30;;;;;;10447414;28;20228;-78
2022/08/09 00:28:49;;;;;;;2.60;2.40;;;21.40;26.30;;;;;;10443830;28;20220;-78
2022/08/09 00:33:56;;;;;;;2.87;2.67;;;21.30;26.20;;;;;;10439554;28;20233;-77
2022/08/09 00:38:59;;;;;;;2.90;2.70;;;21.30;26.20;;;;;;10445818;28;20762;-78
2022/08/09 00:44:06;;;;;;;2.90;2.70;;;21.20;26.10;;;;;;10454202;28;20308;-78
2022/08/09 00:49:30;;;;;;;2.80;2.60;;;21.20;26.20;;;;;;10454298;28;20236;-78
2022/08/09 00:54:34;;;;;;;2.70;2.50;;;21.10;26.40;;;;;;10452512;28;20709;-78
2022/08/09 00:59:39;;;;;;;2.77;2.57;;;20.90;25.90;;;;;;10449451;28;20263;-78
2022/08/09 01:05:01;;;;;;;2.53;2.43;;;20.80;26.40;;;;;;10452102;28;20231;-78
2022/08/09 01:10:12;;;;;;;2.53;2.43;;;20.70;27.20;;;;;;10449897;28;20747;-78
2022/08/09 01:15:19;;;;;;;2.47;2.37;;;20.60;27.40;;;;;;10449383;28;20224;-78
2022/08/09 01:20:34;;;;;;;2.80;2.60;;;20.50;27.30;;;;;;10448417;28;20233;-77
2022/08/09 01:26:02;;;;;;;2.80;2.47;;;20.40;27.90;;;;;;10452773;28;20236;-78
2022/08/09 01:31:11;;;;;;;2.60;2.40;;;20.40;27.90;;;;;;10448211;28;20758;-78
2022/08/09 01:36:36;;;;;;;2.43;2.33;;;20.30;27.60;;;;;;10449338;28;20229;-78
2022/08/09 01:41:42;;;;;;;2.77;2.57;;;20.30;27.40;;;;;;10446091;28;20251;-78
2022/08/09 01:47:05;;;;;;;2.57;2.47;;;20.20;27.30;;;;;;10450504;28;20225;-78
2022/08/09 01:52:17;;;;;;;2.90;2.70;;;20.10;27.70;;;;;;10447456;28;20228;-77
2022/08/09 01:57:27;;;;;;;2.37;2.27;;;20.10;28.00;;;;;;10448071;28;20243;-78
2022/08/09 02:02:35;;;;;;;2.13;2.03;;;20.00;28.10;;;;;;10445089;28;20255;-78
2022/08/09 02:07:46;;;;;;;2.70;2.50;;;20.00;28.00;;;;;;10448892;28;20716;-77
2022/08/09 02:13:11;;;;;;;2.70;2.47;;;20.00;28.20;;;;;;10450022;28;20601;-78
2022/08/09 02:18:19;;;;;;;2.57;2.40;;;20.00;27.70;;;;;;10446891;28;20231;-78
2022/08/09 02:23:29;;;;;;;2.93;2.73;;;19.90;28.10;;;;;;10445581;28;20232;-77
2022/08/09 02:28:45;;;;;;;2.60;2.30;;;19.90;28.30;;;;;;10444572;28;20237;-78
2022/08/09 02:33:54;;;;;;;2.50;2.40;;;19.80;28.00;;;;;;10443440;28;20235;-78
2022/08/09 02:39:20;;;;;;;2.37;2.27;;;19.80;28.50;;;;;;10443750;28;20228;-78
2022/08/09 02:44:46;;;;;;;2.70;2.50;;;19.70;28.50;;;;;;10449373;28;20243;-78
2022/08/09 02:50:04;;;;;;;2.80;2.60;;;19.70;28.20;;;;;;10448748;28;20221;-78
2022/08/09 02:55:09;;;;;;;2.53;2.40;;;19.60;28.80;;;;;;10446492;28;20578;-78
2022/08/09 03:00:24;;;;;;;2.50;2.30;;;19.40;28.30;;;;;;10447389;28;20244;-78
2022/08/09 03:05:31;;;;;;;2.57;2.47;;;19.30;28.10;;;;;;10446547;28;20312;-78
2022/08/09 03:10:38;;;;;;;2.73;2.60;;;19.20;28.90;;;;;;10447644;28;20239;-77
2022/08/09 03:15:46;;;;;;;2.90;2.60;;;19.20;28.60;;;;;;10444134;28;20290;-78
2022/08/09 03:21:11;;;;;;;3.00;2.80;;;19.20;28.60;;;;;;10445680;28;20225;-78
2022/08/09 03:26:18;;;;;;;2.80;2.60;;;19.20;29.10;;;;;;10448899;28;20717;-78
2022/08/09 03:31:33;;;;;;;2.73;2.53;;;19.10;28.50;;;;;;10442805;28;20286;-78
2022/08/09 03:36:59;;;;;;;2.93;2.60;;;19.00;28.60;;;;;;10457547;28;20307;-79
2022/08/09 03:42:22;;;;;;;2.50;2.40;;;18.90;29.00;;;;;;10453650;28;20232;-78
2022/08/09 03:47:33;;;;;;;2.40;2.30;;;18.80;28.60;;;;;;10450488;28;20242;-79
2022/08/09 03:52:44;;;;;;;4.03;2.87;;;18.70;28.60;;;;;;10456269;28;20295;-79
2022/08/09 03:57:49;;;;;;;2.90;2.70;;;18.60;29.50;;;;;;10454259;28;20995;-78
2022/08/09 04:03:06;;;;;;;2.50;2.40;;;18.50;29.40;;;;;;10451726;28;20287;-78
2022/08/09 04:08:15;;;;;;;2.50;2.30;;;18.50;29.10;;;;;;10454892;28;20247;-78
2022/08/09 04:13:18;;;;;;;3.10;2.90;;;18.50;29.30;;;;;;10458609;28;20743;-79
2022/08/09 04:18:42;;;;;;;3.33;3.07;;;18.50;29.30;;;;;;10459242;28;20235;-79
2022/08/09 04:23:49;;;;;;;3.33;2.90;;;18.40;29.20;;;;;;10461299;28;20235;-78
2022/08/09 04:28:59;;;;;;;3.33;2.80;;;18.50;29.90;;;;;;10458763;28;20259;-79
2022/08/09 04:34:12;;;;;;;3.37;2.50;;;18.50;29.40;;;;;;10459025;28;20221;-79
2022/08/09 04:39:22;;;;;;;2.77;2.57;;;18.40;29.40;;;;;;10452762;28;20576;-78
2022/08/09 04:44:26;;;;;;;3.00;2.80;;;18.40;29.70;;;;;;10459180;28;20317;-78
2022/08/09 04:49:32;;;;;;;3.20;3.00;;;18.40;29.60;;;;;;10459882;28;20229;-78
2022/08/09 04:54:58;;;;;;;2.53;2.43;;;18.30;29.70;;;;;;10456917;28;20228;-79
2022/08/09 05:00:03;;;;;;;2.97;2.77;;;18.30;30.00;;;;;;10460504;28;20221;-79
2022/08/09 05:05:08;;;;;;;3.20;2.97;;;18.30;29.90;;;;;;10459155;28;20221;-79
2022/08/09 05:10:13;;;;;;;3.07;2.87;;;18.30;30.10;;;;;;10453031;28;20283;-79
2022/08/09 05:15:17;;;;;;;2.67;2.53;;;18.40;30.80;;;;;;10450635;28;20731;-78
2022/08/09 05:20:40;;;;;;;3.07;2.87;;;18.40;30.40;;;;;;10451409;28;20899;-78
2022/08/09 05:25:48;;;;;;;3.30;3.10;;;18.40;30.50;;;;;;10447786;28;20236;-79
2022/08/09 05:30:53;;;;;;;3.37;2.53;;;18.50;31.20;;;;;;10449908;28;20237;-78
2022/08/09 05:35:57;;;;;;;3.13;2.83;;;18.50;30.90;;;;;;10449937;28;20231;-78
2022/08/09 05:41:04;;;;;;;3.00;2.80;;;18.60;31.10;;;;;;10445509;28;20263;-79
2022/08/09 05:46:14;;;;;;;2.90;2.70;;;18.60;31.90;;;;;;10447786;28;20232;-78
2022/08/09 05:51:17;;;;;;;3.17;2.97;;;18.70;31.40;;;;;;10442924;28;20232;-78
2022/08/09 05:56:42;;;;;;;2.53;2.43;;;18.80;31.80;;;;;;10447615;28;20240;-78
2022/08/09 06:01:58;;;;;;;2.73;2.53;;;18.90;32.60;;;;;;10448971;28;20243;-77
2022/08/09 06:07:04;;;;;;;2.40;2.30;;;19.00;32.10;;;;;;10438926;28;20751;-78
2022/08/09 06:12:09;;;;;;;2.07;1.97;;;19.20;32.40;;;;;;10450756;28;20229;-77
2022/08/09 06:17:13;;;;;;;2.30;2.10;;;19.30;32.80;;;;;;10443222;28;20270;-77
2022/08/09 06:22:17;;;;;;;3.13;2.00;;;19.50;32.10;;;;;;10439215;28;20272;-77
2022/08/09 06:27:32;;;;;;;2.53;2.20;;;19.60;32.00;;;;;;10445865;28;20259;-77
2022/08/09 06:32:44;;;;;;;2.23;2.13;;;19.80;32.10;;;;;;10444643;28;20221;-77
2022/08/09 06:38:08;;;;;;;2.30;2.20;;;20.00;31.80;;;;;;10435341;28;20260;-76
2022/08/09 06:43:14;;;;;;;1.83;1.73;;;20.20;31.70;;;;;;10438743;28;20235;-76
2022/08/09 06:48:17;;;;;;;3.47;2.00;;;20.40;32.30;;;;;;10438034;28;20228;-76
2022/08/09 06:53:32;;;;;;;2.27;2.07;;;20.50;31.80;;;;;;10430855;28;20720;-76
2022/08/09 06:58:42;;;;;;;3.87;1.90;;;20.80;31.80;;;;;;10442261;28;20253;-76
2022/08/09 07:04:05;;;;;;;2.10;1.83;;;20.90;31.80;;;;;;10436365;28;20221;-77
2022/08/09 07:09:12;;;;;;;3.30;1.50;;;21.20;31.30;;;;;;10437310;28;20225;-77
2022/08/09 07:14:36;;;;;;;1.57;1.47;;;21.40;30.80;;;;;;10440865;28;20236;-77
2022/08/09 07:19:40;;;;;;;2.87;1.50;;;21.70;30.40;;;;;;10440669;28;20237;-77
2022/08/09 07:24:44;;;;;;;1.60;1.50;;;21.90;30.20;;;;;;10422898;28;20603;-77
2022/08/09 07:29:53;;;;;;;2.70;1.70;;;22.10;30.00;;;;;;10426321;28;20225;-77
2022/08/09 07:35:00;;;;;;;1.70;1.60;;;22.40;29.70;;;;;;10446424;28;20233;-78
2022/08/09 07:40:13;;;;;;;1.60;1.50;;;22.70;29.70;;;;;;10407850;28;20861;-79
2022/08/09 07:45:25;;;;;;;1.73;1.63;;;22.90;29.20;;;;;;10431033;28;20236;-79
2022/08/09 07:50:42;;;;;;;2.30;1.67;;;23.20;29.10;;;;;;10444936;28;20278;-80
2022/08/09 07:55:55;;;;;;;1.73;1.63;;;23.50;29.10;;;;;;10444661;28;20232;-79
2022/08/09 08:01:10;;;;;;;2.10;1.47;;;23.80;28.80;;;;;;10444690;28;20889;-80
2022/08/09 08:06:15;;;;;;;1.90;1.80;;;24.00;28.20;;;;;;10445927;28;20830;-77
2022/08/09 08:11:23;;;;;;;1.60;1.50;;;24.30;28.50;;;;;;10443175;28;20599;-80
2022/08/09 08:16:48;;;;;;;1.87;1.40;;;24.60;28.40;;;;;;10444756;28;20236;-81
2022/08/09 08:22:03;;;;;;;1.70;1.60;;;24.90;27.90;;;;;;10448568;28;20232;-80
2022/08/09 08:27:06;;;;;;;1.90;1.80;;;25.20;27.80;;;;;;10448309;28;20311;-80
2022/08/09 08:32:22;;;;;;;2.00;1.60;;;25.40;27.30;;;;;;10453610;28;20224;-80
2022/08/09 08:37:32;;;;;;;1.80;1.60;;;25.70;26.40;;;;;;10448544;28;20236;-80
2022/08/09 08:42:56;;;;;;;1.50;1.40;;;26.00;26.50;;;;;;10450305;28;20225;-80
2022/08/09 08:48:02;;;;;;;1.70;1.53;;;26.30;25.90;;;;;;10449729;28;20278;-80
2022/08/09 08:53:07;;;;;;;1.73;1.30;;;26.50;25.10;;;;;;10448825;28;20221;-80
2022/08/09 08:58:24;;;;;;;2.20;1.70;;;26.70;25.60;;;;;;10452657;28;20579;-79
2022/08/09 09:03:34;;;;;;;2.33;1.80;;;26.90;25.00;;;;;;10456020;28;20244;-81
2022/08/09 09:08:44;;;;;;;2.20;1.40;;;27.20;23.60;;;;;;10425672;28;20229;-81
2022/08/09 09:13:57;;;;;;;1.57;1.43;;;27.40;24.40;;;;;;10444832;28;20320;-78
2022/08/09 09:19:03;;;;;;;1.80;1.60;;;27.50;23.50;;;;;;10452464;28;20217;-79
2022/08/09 09:24:28;;;;;;;2.40;1.67;;;27.70;23.10;;;;;;10432314;28;20224;-77
2022/08/09 09:29:33;;;;;;;2.70;1.40;;;27.80;23.10;;;;;;10439433;28;20792;-76
2022/08/09 09:35:06;;;;;;;1.67;1.57;;;28.00;22.90;;;;;;10435544;28;20217;-78
2022/08/09 09:40:11;;;;;;;1.53;1.43;;;28.10;21.60;;;;;;10444107;28;20213;-79
2022/08/09 09:45:15;;;;;;;1.60;1.50;;;28.30;22.60;;;;;;10447262;28;20240;-78
2022/08/09 09:50:42;;;;;;;2.43;1.60;;;28.40;22.60;;;;;;10442065;28;20236;-79
2022/08/09 09:55:55;;;;;;;1.60;1.50;;;28.50;21.50;;;;;;10442127;28;20272;-78
2022/08/09 10:01:18;;;;;;;1.97;1.87;;;28.60;21.80;;;;;;10442795;28;20217;-79
2022/08/09 10:06:43;;;;;;;1.50;1.40;;;28.80;21.00;;;;;;10447014;28;20237;-81
2022/08/09 10:11:57;;;;;;;2.10;1.57;;;28.90;20.90;;;;;;10451396;28;20316;-79
2022/08/09 10:17:18;;;;;;;2.20;1.20;;;29.10;20.60;;;;;;10417019;28;20837;-77
2022/08/09 10:22:42;;;;;;;1.37;1.27;;;29.20;20.70;;;;;;10430245;28;20726;-77
2022/08/09 10:27:50;;;;;;;1.77;1.20;;;29.40;20.80;;;;;;10452517;28;20233;-77
2022/08/09 10:33:00;;;;;;;1.30;1.30;;;29.50;20.90;;;;;;10448169;28;20247;-76
2022/08/09 10:38:08;;;;;;;1.93;1.60;;;29.60;20.90;;;;;;10434859;28;20267;-77
2022/08/09 10:43:31;;;;;;;2.33;1.57;;;29.70;19.80;;;;;;10411540;28;20631;-76
2022/08/09 10:48:56;;;;;;;2.33;1.33;;;29.80;20.30;;;;;;10412849;28;20642;-77
2022/08/09 10:54:06;;;;;;;1.40;1.30;;;29.90;19.40;;;;;;10421077;28;20230;-78
2022/08/09 10:59:30;;;;;;;1.60;1.50;;;30.00;19.40;;;;;;10431760;28;20236;-78
2022/08/09 11:05:15;;;;;;;1.30;1.30;;;30.10;19.00;;;;;;10437074;28;20768;-78
2022/08/09 11:10:55;;;;;;;1.53;1.43;;;30.20;19.00;;;;;;10445081;28;20295;-77
2022/08/09 11:16:33;;;;;;;2.40;1.53;;;30.20;18.80;;;;;;10450524;28;20229;-78
2022/08/09 11:21:52;;;;;;;1.53;1.40;;;30.20;18.70;;;;;;10449970;28;20282;-77
2022/08/09 11:27:33;;;;;;;1.53;1.43;;;30.20;18.50;;;;;;10435026;28;20229;-78
2022/08/09 11:33:02;;;;;;;1.97;1.50;;;30.20;18.30;;;;;;10445299;28;20250;-78
2022/08/09 11:38:15;;;;;;;1.30;1.30;;;30.20;17.80;;;;;;10448746;28;20228;-77
2022/08/09 11:43:42;;;;;;;2.50;1.30;;;30.20;17.80;;;;;;10442784;28;20256;-77
2022/08/09 11:48:48;;;;;;;1.83;1.47;;;30.30;18.10;;;;;;10428597;28;20232;-77
2022/08/09 11:54:13;;;;;;;1.40;1.30;;;30.30;18.20;;;;;;10427732;28;20225;-78
2022/08/09 11:59:34;;;;;;;1.77;1.57;;;30.30;17.70;;;;;;10432223;28;20237;-78
2022/08/09 12:04:40;;;;;;;3.10;1.60;;;30.30;17.80;;;;;;10446457;28;20308;-78
2022/08/09 12:09:44;;;;;;;1.37;1.37;;;30.30;17.90;;;;;;10440912;28;20245;-76
2022/08/09 12:14:54;;;;;;;1.60;1.50;;;30.40;18.00;;;;;;10439596;28;20713;-78
2022/08/09 12:20:14;;;;;;;2.07;1.40;;;30.40;17.70;;;;;;10437988;28;20213;-78
2022/08/09 12:25:25;;;;;;;1.73;1.43;;;30.40;17.50;;;;;;10444549;28;20801;-78
2022/08/09 12:30:41;;;;;;;1.63;1.27;;;30.40;17.70;;;;;;10435869;28;20232;-77
2022/08/09 12:35:46;;;;;;;3.70;1.50;;;30.40;17.40;;;;;;10452202;28;20316;-78
2022/08/09 12:40:52;;;;;;;1.50;1.40;;;30.40;17.60;;;;;;10454118;28;20916;-78
2022/08/09 12:45:59;;;;;;;2.10;1.43;;;30.50;17.30;;;;;;10448063;28;20307;-78
2022/08/09 12:51:03;;;;;;;2.70;1.47;;;30.60;17.00;;;;;;10450861;28;20252;-78
2022/08/09 12:56:12;;;;;;;2.40;1.60;;;30.60;17.00;;;;;;10443824;28;20225;-79
2022/08/09 13:01:39;;;;;;;1.50;1.40;;;30.60;16.70;;;;;;10453015;28;20248;-78
2022/08/09 13:06:51;;;;;;;1.40;1.30;;;30.60;16.50;;;;;;10447224;28;20225;-79
2022/08/09 13:12:06;;;;;;;1.87;1.50;;;30.60;16.90;;;;;;10453235;28;20251;-78
2022/08/09 13:17:17;;;;;;;1.50;1.40;;;30.70;15.90;;;;;;10446009;28;20231;-77
2022/08/09 13:22:48;;;;;;;1.67;1.57;;;30.60;16.00;;;;;;10453125;28;20572;-78
2022/08/09 13:28:11;;;;;;;1.40;1.37;;;30.60;16.00;;;;;;10452322;28;20255;-78
2022/08/09 13:33:28;;;;;;;1.70;1.60;;;30.70;16.10;;;;;;10457275;28;20248;-78
2022/08/09 13:38:51;;;;;;;2.27;1.53;;;30.70;16.20;;;;;;10447210;28;20233;-77
2022/08/09 13:44:00;;;;;;;1.70;1.60;;;30.70;16.20;;;;;;10440032;28;20221;-78
2022/08/09 13:49:08;;;;;;;2.70;1.30;;;30.70;16.20;;;;;;10446971;28;20721;-77
2022/08/09 13:54:20;;;;;;;1.53;1.43;;;30.80;16.10;;;;;;10456069;28;20255;-78
2022/08/09 13:59:27;;;;;;;1.50;1.40;;;30.90;16.30;;;;;;10455983;28;20312;-77
2022/08/09 14:04:45;;;;;;;3.37;1.50;;;30.90;16.10;;;;;;10438227;28;20240;-78
2022/08/09 14:10:01;;;;;;;1.97;1.40;;;31.00;16.40;;;;;;10437660;28;20239;-78
2022/08/09 14:15:06;;;;;;;1.93;1.50;;;31.00;16.00;;;;;;10457275;28;20696;-78
2022/08/09 14:20:31;;;;;;;1.63;1.30;;;31.10;15.90;;;;;;10439397;28;20724;-78
2022/08/09 14:25:34;;;;;;;1.40;1.40;;;31.10;15.70;;;;;;10430974;28;20654;-78
2022/08/09 14:30:45;;;;;;;1.50;1.40;;;31.10;16.00;;;;;;10457820;28;20241;-77
2022/08/09 14:35:51;;;;;;;1.67;1.57;;;31.10;15.80;;;;;;10448174;28;20242;-77
2022/08/09 14:40:55;;;;;;;1.60;1.50;;;31.20;15.30;;;;;;10443130;28;20256;-76
2022/08/09 14:46:04;;;;;;;1.47;1.37;;;31.20;15.50;;;;;;10444015;28;20255;-78
2022/08/09 14:51:29;;;;;;;1.47;1.37;;;31.20;15.40;;;;;;10442280;28;20701;-78
2022/08/09 14:56:44;;;;;;;1.90;1.50;;;31.20;15.20;;;;;;10456531;28;20236;-79
2022/08/09 15:02:00;;;;;;;1.70;1.60;;;31.20;15.30;;;;;;10423241;28;20290;-79
2022/08/09 15:07:06;;;;;;;1.53;1.43;;;31.30;15.30;;;;;;10454797;28;20244;-78
2022/08/09 15:12:12;;;;;;;1.50;1.40;;;31.30;15.00;;;;;;10429853;28;20314;-78
2022/08/09 15:17:15;;;;;;;1.53;1.50;;;31.30;15.00;;;;;;10438646;28;20217;-79
2022/08/09 15:22:20;;;;;;;1.50;1.40;;;31.30;14.90;;;;;;10454558;28;20224;-79
2022/08/09 15:27:28;;;;;;;1.20;1.20;;;31.30;14.70;;;;;;10421951;28;20251;-79
2022/08/09 15:32:49;;;;;;;1.83;1.63;;;31.30;14.90;;;;;;10434604;28;20231;-77
2022/08/09 15:37:56;;;;;;;1.50;1.40;;;31.30;14.80;;;;;;10422702;28;20222;-79
2022/08/09 15:43:13;;;;;;;1.50;1.40;;;31.40;14.60;;;;;;10419887;28;20221;-78
2022/08/09 15:48:17;;;;;;;1.63;1.30;;;31.50;14.70;;;;;;10438158;28;20224;-79
2022/08/09 15:53:35;;;;;;;1.47;1.47;;;31.50;14.70;;;;;;10444910;28;20232;-76
2022/08/09 15:58:58;;;;;;;1.80;1.50;;;31.50;14.30;;;;;;10437877;28;20244;-78
2022/08/09 16:04:04;;;;;;;4.33;1.50;;;31.50;14.50;;;;;;10435510;28;20251;-77
2022/08/09 16:09:16;;;;;;;1.93;1.40;;;31.50;14.40;;;;;;10442514;28;20267;-77
2022/08/09 16:14:34;;;;;;;2.97;1.60;;;31.50;14.30;;;;;;10449936;28;20224;-75
2022/08/09 16:19:37;;;;;;;1.50;1.40;;;31.50;14.30;;;;;;10438630;28;20240;-77
2022/08/09 16:25:02;;;;;;;1.60;1.50;;;31.50;14.40;;;;;;10444475;28;20231;-77
2022/08/09 16:30:10;;;;;;;1.50;1.40;;;31.50;14.00;;;;;;10442194;28;20228;-77
2022/08/09 16:35:17;;;;;;;1.60;1.50;;;31.50;14.00;;;;;;10441766;28;20240;-77
2022/08/09 16:40:42;;;;;;;1.40;1.40;;;31.60;14.20;;;;;;10443362;28;20225;-77
2022/08/09 16:45:47;;;;;;;1.67;1.40;;;31.60;13.90;;;;;;10444638;28;20315;-77
2022/08/09 16:50:56;;;;;;;1.50;1.40;;;31.60;14.00;;;;;;10443003;28;20340;-78
2022/08/09 16:56:11;;;;;;;1.63;1.53;;;31.60;14.10;;;;;;10445231;28;20240;-77
2022/08/09 17:01:14;;;;;;;1.50;1.47;;;31.60;13.70;;;;;;10445997;28;21020;-77
2022/08/09 17:06:21;;;;;;;1.43;1.40;;;31.60;13.90;;;;;;10442006;28;20327;-77
2022/08/09 17:11:35;;;;;;;1.37;1.37;;;31.60;14.00;;;;;;10446718;28;20241;-77
2022/08/09 17:16:44;;;;;;;1.60;1.50;;;31.50;13.80;;;;;;10446530;28;20229;-78
2022/08/09 17:21:47;;;;;;;2.03;1.40;;;31.50;14.00;;;;;;10452508;28;20653;-78
2022/08/09 17:26:58;;;;;;;1.57;1.43;;;31.50;14.10;;;;;;10452580;28;20225;-78
2022/08/09 17:32:02;;;;;;;1.40;1.30;;;31.50;13.80;;;;;;10454006;28;20229;-79
2022/08/09 17:37:05;;;;;;;1.93;1.40;;;31.50;14.00;;;;;;10448086;28;20225;-78
2022/08/09 17:42:23;;;;;;;1.83;1.50;;;31.40;13.70;;;;;;10455660;28;20282;-79
2022/08/09 17:47:46;;;;;;;2.20;1.50;;;31.30;13.70;;;;;;10443029;28;20258;-78
2022/08/09 17:52:56;;;;;;;1.40;1.30;;;31.20;14.00;;;;;;10448501;28;20232;-78
2022/08/09 17:58:02;;;;;;;1.40;1.30;;;31.00;14.20;;;;;;10450276;28;20228;-78
2022/08/09 18:03:11;;;;;;;2.03;1.57;;;30.90;14.50;;;;;;10447037;28;20689;-77
2022/08/09 18:08:15;;;;;;;1.67;1.57;;;30.80;14.70;;;;;;10446354;28;20241;-78
2022/08/09 18:13:19;;;;;;;1.57;1.47;;;30.60;14.90;;;;;;10448461;28;20243;-77
2022/08/09 18:18:42;;;;;;;1.87;1.57;;;30.50;14.80;;;;;;10449971;28;20229;-77
2022/08/09 18:23:51;;;;;;;4.53;1.70;;;30.40;15.50;;;;;;10448727;28;20221;-78
2022/08/09 18:29:16;;;;;;;3.20;1.87;;;30.30;15.60;;;;;;10450342;28;20229;-78
2022/08/09 18:34:39;;;;;;;1.83;1.47;;;30.10;15.90;;;;;;10450382;28;20400;-78
2022/08/09 18:39:44;;;;;;;2.30;1.60;;;30.00;16.00;;;;;;10447609;28;20229;-77
2022/08/09 18:44:52;;;;;;;2.27;1.53;;;29.90;16.10;;;;;;10445225;28;20299;-76
2022/08/09 18:49:55;;;;;;;1.60;1.50;;;29.70;16.00;;;;;;10441192;28;20228;-78
2022/08/09 18:55:05;;;;;;;1.60;1.50;;;29.60;16.20;;;;;;10452050;28;20618;-77
2022/08/09 19:00:17;;;;;;;1.90;1.70;;;29.60;16.50;;;;;;10451374;28;20919;-77
2022/08/09 19:05:23;;;;;;;2.37;1.53;;;29.50;16.80;;;;;;10450844;28;20636;-79
2022/08/09 19:10:47;;;;;;;1.63;1.50;;;29.30;16.60;;;;;;10450257;28;20236;-78
2022/08/09 19:15:54;;;;;;;1.57;1.47;;;29.10;16.80;;;;;;10450317;28;20240;-78
2022/08/09 19:20:58;;;;;;;2.80;1.60;;;29.00;17.00;;;;;;10450107;28;20320;-77
2022/08/09 19:26:03;;;;;;;1.63;1.43;;;28.80;16.70;;;;;;10450057;28;20291;-78
2022/08/09 19:31:08;;;;;;;1.73;1.63;;;28.70;16.60;;;;;;10449742;28;20748;-76
2022/08/09 19:36:12;;;;;;;1.73;1.40;;;28.50;16.70;;;;;;10450465;28;20239;-78
2022/08/09 19:41:15;;;;;;;1.70;1.60;;;28.40;16.60;;;;;;10448845;28;20727;-79
2022/08/09 19:46:39;;;;;;;2.30;1.43;;;28.30;16.50;;;;;;10449404;28;20240;-78
2022/08/09 19:51:53;;;;;;;1.60;1.50;;;28.20;16.60;;;;;;10438769;28;20374;-76
2022/08/09 19:56:58;;;;;;;1.50;1.27;;;28.10;16.60;;;;;;10444628;28;20233;-75
2022/08/09 20:02:05;;;;;;;1.10;1.10;;;28.00;16.60;;;;;;10444700;28;20919;-75
2022/08/09 20:07:28;;;;;;;1.47;1.37;;;27.90;16.80;;;;;;10447029;28;20574;-76
2022/08/09 20:12:51;;;;;;;1.67;1.50;;;27.80;16.80;;;;;;10443504;28;20225;-74
2022/08/09 20:17:58;;;;;;;1.50;1.50;;;27.80;17.00;;;;;;10443172;28;20252;-77
2022/08/09 20:23:01;;;;;;;1.50;1.40;;;27.70;17.10;;;;;;10444723;28;20235;-80
2022/08/09 20:28:04;;;;;;;1.40;1.30;;;27.60;17.00;;;;;;10445154;28;20474;-75
2022/08/09 20:33:10;;;;;;;1.70;1.60;;;27.50;17.20;;;;;;10429525;28;20243;-78
2022/08/09 20:38:14;;;;;;;1.67;1.40;;;27.40;17.50;;;;;;10437168;28;20340;-76
2022/08/09 20:43:32;;;;;;;2.60;1.40;;;27.30;17.50;;;;;;10434464;28;20228;-76
2022/08/09 20:48:38;;;;;;;1.90;1.80;;;27.20;17.70;;;;;;10426566;28;20257;-77
2022/08/09 20:53:43;;;;;;;1.50;1.40;;;27.10;18.00;;;;;;10421599;28;20229;-78
2022/08/09 20:58:52;;;;;;;1.73;1.40;;;26.90;18.10;;;;;;10449044;28;20256;-77
2022/08/09 21:04:01;;;;;;;1.70;1.60;;;26.90;18.10;;;;;;10439121;28;20229;-76
2022/08/09 21:09:24;;;;;;;1.50;1.40;;;26.80;18.30;;;;;;10430413;28;20236;-76
2022/08/09 21:14:44;;;;;;;1.70;1.47;;;26.70;18.30;;;;;;10435999;28;20740;-75
2022/08/09 21:19:51;;;;;;;3.07;1.50;;;26.60;18.50;;;;;;10431971;28;20249;-76
2022/08/09 21:30:41;;;;;;;1.70;1.60;;;26.30;18.70;;;;;;10437470;28;20325;-74
2022/08/09 21:35:47;;;;;;;2.00;1.80;;;26.30;19.00;;;;;;10427856;28;20243;-76
2022/08/09 21:40:54;;;;;;;1.73;1.57;;;26.10;19.10;;;;;;10431116;28;20300;-76
2022/08/09 21:45:57;;;;;;;1.77;1.50;;;26.00;19.00;;;;;;10431195;28;20323;-74
2022/08/09 21:51:02;;;;;;;1.50;1.40;;;25.90;19.00;;;;;;10436307;28;20593;-76
2022/08/09 21:56:05;;;;;;;1.83;1.60;;;25.70;18.90;;;;;;10434788;28;20253;-75
2022/08/09 22:01:29;;;;;;;1.93;1.67;;;25.60;18.90;;;;;;10436132;28;20999;-76
2022/08/09 22:06:54;;;;;;;2.20;1.80;;;25.60;19.20;;;;;;10427817;28;20247;-76
2022/08/09 22:12:05;;;;;;;1.60;1.50;;;25.50;19.80;;;;;;10428529;28;20227;-76
2022/08/09 22:17:26;;;;;;;1.77;1.67;;;25.40;19.70;;;;;;10437462;28;20897;-75
2022/08/09 22:22:35;;;;;;;1.50;1.40;;;25.30;19.60;;;;;;10432605;28;20885;-73
2022/08/09 22:27:39;;;;;;;1.90;1.80;;;25.20;20.00;;;;;;10430065;28;20287;-74
2022/08/09 22:32:44;;;;;;;1.53;1.43;;;25.10;19.90;;;;;;10436039;28;20727;-76
2022/08/09 22:37:48;;;;;;;2.10;1.70;;;24.90;19.90;;;;;;10432377;28;20229;-76
2022/08/09 22:43:09;;;;;;;1.60;1.50;;;24.90;20.40;;;;;;10434732;28;20270;-76
2022/08/09 22:48:32;;;;;;;1.50;1.40;;;24.70;20.30;;;;;;10434399;28;20232;-76
2022/08/09 22:53:39;;;;;;;1.97;1.70;;;24.60;20.30;;;;;;10438265;28;20236;-76
2022/08/09 22:59:04;;;;;;;2.10;1.40;;;24.50;20.90;;;;;;10434927;28;20228;-75
2022/08/09 23:04:27;;;;;;;1.30;1.20;;;24.30;20.70;;;;;;10433521;28;20242;-74
2022/08/09 23:09:36;;;;;;;2.10;1.53;;;24.30;20.80;;;;;;10438159;28;20229;-75
2022/08/09 23:14:39;;;;;;;1.67;1.50;;;24.10;21.10;;;;;;10437431;28;20237;-76
2022/08/09 23:19:44;;;;;;;1.50;1.40;;;24.10;21.00;;;;;;10433949;28;20243;-75
2022/08/09 23:25:10;;;;;;;1.50;1.40;;;24.00;21.10;;;;;;10430576;28;20225;-75
2022/08/09 23:30:13;;;;;;;1.50;1.40;;;24.00;21.50;;;;;;10430735;28;20229;-75
2022/08/09 23:35:17;;;;;;;1.50;1.40;;;23.90;21.40;;;;;;10431526;28;20228;-76
2022/08/09 23:40:21;;;;;;;2.23;1.50;;;23.80;21.30;;;;;;10431377;28;20213;-76
2022/08/09 23:45:25;;;;;;;1.73;1.63;;;23.70;21.70;;;;;;10430169;28;20233;-74
2022/08/09 23:50:40;;;;;;;2.30;1.90;;;23.60;21.60;;;;;;10432056;28;20844;-76
2022/08/09 23:55:45;;;;;;;1.87;1.73;;;23.50;21.70;;;;;;10437705;28;20232;-75
